sensor_id;sensor_type;location;lat;lon;timestamp;pressure;altitude;pressure_sealevel;temperature;humidity
76726;BME280;65651;53.154;17.916;2023-10-13T00:00:43;101002.77;;;4.46;83.03
76726;BME280;65651;53.154;17.916;2023-10-13T00:03:31;101003.64;;;4.44;83.02
76726;BME280;65651;53.154;17.916;2023-10-13T00:05:58;101004.67;;;4.41;83.04
76726;BME280;65651;53.154;17.916;2023-10-13T00:08:29;101005.77;;;4.38;83.04
76726;BME280;65651;53.154;17.916;2023-10-13T00:10:57;101008.11;;;4.35;83.13
76726;BME280;65651;53.154;17.916;2023-10-13T00:13:27;101010.79;;;4.32;83.19
76726;BME280;65651;53.154;17.916;2023-10-13T00:15:57;101012.36;;;4.29;83.04
76726;BME280;65651;53.154;17.916;2023-10-13T00:18:29;101013.06;;;4.26;83.14
76726;BME280;65651;53.154;17.916;2023-10-13T00:21:01;101011.77;;;4.24;83.18
76726;BME280;65651;53.154;17.916;2023-10-13T00:23:46;101016.71;;;4.22;83.25
76726;BME280;65651;53.154;17.916;2023-10-13T00:26:24;101016.04;;;4.21;83.25
76726;BME280;65651;53.154;17.916;2023-10-13T00:28:56;101017.77;;;4.19;83.24
76726;BME280;65651;53.154;17.916;2023-10-13T00:31:43;101023.10;;;4.17;83.32
76726;BME280;65651;53.154;17.916;2023-10-13T00:34:14;101020.92;;;4.14;83.37
76726;BME280;65651;53.154;17.916;2023-10-13T00:36:52;101021.01;;;4.13;83.36
76726;BME280;65651;53.154;17.916;2023-10-13T00:39:38;101018.80;;;4.11;83.28
76726;BME280;65651;53.154;17.916;2023-10-13T00:42:13;101013.70;;;4.08;83.42
76726;BME280;65651;53.154;17.916;2023-10-13T00:44:51;101016.55;;;4.04;83.43
76726;BME280;65651;53.154;17.916;2023-10-13T00:47:22;101014.77;;;4.01;83.41
76726;BME280;65651;53.154;17.916;2023-10-13T00:50:10;101016.74;;;3.98;83.54
76726;BME280;65651;53.154;17.916;2023-10-13T00:52:38;101019.35;;;3.97;83.52
76726;BME280;65651;53.154;17.916;2023-10-13T00:55:08;101021.63;;;3.94;83.63
76726;BME280;65651;53.154;17.916;2023-10-13T00:57:36;101024.95;;;3.92;83.63
76726;BME280;65651;53.154;17.916;2023-10-13T01:00:05;101022.58;;;3.90;83.59
76726;BME280;65651;53.154;17.916;2023-10-13T01:02:46;101030.35;;;3.88;83.66
76726;BME280;65651;53.154;17.916;2023-10-13T01:05:23;101033.27;;;3.87;83.49
76726;BME280;65651;53.154;17.916;2023-10-13T01:07:53;101038.11;;;3.86;83.69
76726;BME280;65651;53.154;17.916;2023-10-13T01:10:22;101041.30;;;3.86;83.81
76726;BME280;65651;53.154;17.916;2023-10-13T01:12:59;101040.58;;;3.86;83.63
76726;BME280;65651;53.154;17.916;2023-10-13T01:15:30;101038.43;;;3.87;83.78
76726;BME280;65651;53.154;17.916;2023-10-13T01:18:09;101033.55;;;3.88;83.78
76726;BME280;65651;53.154;17.916;2023-10-13T01:20:41;101029.34;;;3.90;83.74
76726;BME280;65651;53.154;17.916;2023-10-13T01:23:13;101021.20;;;3.92;83.71
76726;BME280;65651;53.154;17.916;2023-10-13T01:25:46;101022.35;;;3.94;83.79
76726;BME280;65651;53.154;17.916;2023-10-13T01:28:15;101020.86;;;3.95;83.75
76726;BME280;65651;53.154;17.916;2023-10-13T01:30:45;101014.89;;;3.94;83.99
76726;BME280;65651;53.154;17.916;2023-10-13T01:33:21;101013.70;;;3.93;83.75
76726;BME280;65651;53.154;17.916;2023-10-13T01:35:55;101012.55;;;3.91;83.80
76726;BME280;65651;53.154;17.916;2023-10-13T01:38:25;101011.83;;;3.89;83.92
76726;BME280;65651;53.154;17.916;2023-10-13T01:40:54;101012.83;;;3.87;83.96
76726;BME280;65651;53.154;17.916;2023-10-13T01:43:23;101011.34;;;3.85;83.94
76726;BME280;65651;53.154;17.916;2023-10-13T01:45:53;101007.20;;;3.83;83.95
76726;BME280;65651;53.154;17.916;2023-10-13T01:48:21;101012.21;;;3.83;83.99
76726;BME280;65651;53.154;17.916;2023-10-13T01:50:49;101018.45;;;3.79;83.93
76726;BME280;65651;53.154;17.916;2023-10-13T01:53:22;101020.11;;;3.75;84.01
76726;BME280;65651;53.154;17.916;2023-10-13T01:55:55;101014.05;;;3.73;83.92
76726;BME280;65651;53.154;17.916;2023-10-13T01:58:26;101009.87;;;3.69;84.02
76726;BME280;65651;53.154;17.916;2023-10-13T02:00:56;101004.48;;;3.66;83.99
76726;BME280;65651;53.154;17.916;2023-10-13T02:03:23;101004.42;;;3.65;84.03
76726;BME280;65651;53.154;17.916;2023-10-13T02:05:50;101004.27;;;3.61;84.07
76726;BME280;65651;53.154;17.916;2023-10-13T02:08:24;101003.45;;;3.57;84.09
76726;BME280;65651;53.154;17.916;2023-10-13T02:10:56;101004.79;;;3.55;84.05
76726;BME280;65651;53.154;17.916;2023-10-13T02:13:25;101005.48;;;3.53;84.22
76726;BME280;65651;53.154;17.916;2023-10-13T02:15:54;101002.48;;;3.49;84.01
76726;BME280;65651;53.154;17.916;2023-10-13T02:18:29;101002.79;;;3.47;84.00
76726;BME280;65651;53.154;17.916;2023-10-13T02:21:08;101001.69;;;3.45;84.09
76726;BME280;65651;53.154;17.916;2023-10-13T02:23:45;101001.95;;;3.43;84.03
76726;BME280;65651;53.154;17.916;2023-10-13T02:26:13;101002.41;;;3.42;84.14
76726;BME280;65651;53.154;17.916;2023-10-13T02:29:01;101000.10;;;3.39;84.21
76726;BME280;65651;53.154;17.916;2023-10-13T02:31:35;100996.98;;;3.38;84.10
76726;BME280;65651;53.154;17.916;2023-10-13T02:34:04;100997.26;;;3.36;84.22
76726;BME280;65651;53.154;17.916;2023-10-13T02:36:35;101001.67;;;3.34;84.27
76726;BME280;65651;53.154;17.916;2023-10-13T02:39:05;101002.18;;;3.31;83.97
76726;BME280;65651;53.154;17.916;2023-10-13T02:41:35;101008.32;;;3.29;83.89
76726;BME280;65651;53.154;17.916;2023-10-13T02:44:06;101009.67;;;3.27;83.79
76726;BME280;65651;53.154;17.916;2023-10-13T02:46:35;101009.95;;;3.25;83.81
76726;BME280;65651;53.154;17.916;2023-10-13T02:49:03;101009.30;;;3.24;84.00
76726;BME280;65651;53.154;17.916;2023-10-13T02:51:38;101006.83;;;3.24;84.07
76726;BME280;65651;53.154;17.916;2023-10-13T02:54:10;101011.45;;;3.21;84.23
76726;BME280;65651;53.154;17.916;2023-10-13T02:56:46;101011.20;;;3.19;83.88
76726;BME280;65651;53.154;17.916;2023-10-13T02:59:32;101008.52;;;3.16;84.34
76726;BME280;65651;53.154;17.916;2023-10-13T03:02:16;101012.48;;;3.16;84.16
76726;BME280;65651;53.154;17.916;2023-10-13T03:04:54;101014.09;;;3.15;84.26
76726;BME280;65651;53.154;17.916;2023-10-13T03:07:37;101016.02;;;3.16;84.10
76726;BME280;65651;53.154;17.916;2023-10-13T03:10:05;101016.48;;;3.16;84.27
76726;BME280;65651;53.154;17.916;2023-10-13T03:12:40;101016.35;;;3.19;84.29
76726;BME280;65651;53.154;17.916;2023-10-13T03:15:09;101022.97;;;3.21;84.34
76726;BME280;65651;53.154;17.916;2023-10-13T03:17:40;101015.59;;;3.22;84.27
76726;BME280;65651;53.154;17.916;2023-10-13T03:20:15;101017.55;;;3.26;84.49
76726;BME280;65651;53.154;17.916;2023-10-13T03:22:43;101025.59;;;3.28;84.48
76726;BME280;65651;53.154;17.916;2023-10-13T03:25:14;101023.13;;;3.30;84.59
76726;BME280;65651;53.154;17.916;2023-10-13T03:28:04;101019.52;;;3.32;84.40
76726;BME280;65651;53.154;17.916;2023-10-13T03:30:32;101013.40;;;3.33;84.56
76726;BME280;65651;53.154;17.916;2023-10-13T03:33:04;101014.42;;;3.34;84.46
76726;BME280;65651;53.154;17.916;2023-10-13T03:35:39;101009.14;;;3.36;84.59
76726;BME280;65651;53.154;17.916;2023-10-13T03:38:10;101009.38;;;3.38;84.56
76726;BME280;65651;53.154;17.916;2023-10-13T03:40:49;101013.01;;;3.40;84.63
76726;BME280;65651;53.154;17.916;2023-10-13T03:43:23;101012.58;;;3.41;84.40
76726;BME280;65651;53.154;17.916;2023-10-13T03:45:51;101011.95;;;3.42;84.48
76726;BME280;65651;53.154;17.916;2023-10-13T03:48:27;101010.09;;;3.44;84.48
76726;BME280;65651;53.154;17.916;2023-10-13T03:53:42;101006.58;;;3.46;84.65
76726;BME280;65651;53.154;17.916;2023-10-13T03:56:24;101003.71;;;3.47;84.54
76726;BME280;65651;53.154;17.916;2023-10-13T03:58:55;101012.16;;;3.48;84.65
76726;BME280;65651;53.154;17.916;2023-10-13T04:01:41;101015.05;;;3.47;84.65
76726;BME280;65651;53.154;17.916;2023-10-13T04:04:13;101016.27;;;3.45;84.54
76726;BME280;65651;53.154;17.916;2023-10-13T04:06:44;101018.74;;;3.45;84.63
76726;BME280;65651;53.154;17.916;2023-10-13T04:12:02;101006.17;;;3.44;84.76
76726;BME280;65651;53.154;17.916;2023-10-13T04:14:34;101003.54;;;3.44;84.71
76726;BME280;65651;53.154;17.916;2023-10-13T04:17:30;100992.58;;;3.43;84.74
76726;BME280;65651;53.154;17.916;2023-10-13T04:20:02;100996.30;;;3.43;84.72
76726;BME280;65651;53.154;17.916;2023-10-13T04:22:37;100995.67;;;3.41;84.82
76726;BME280;65651;53.154;17.916;2023-10-13T04:28:06;100990.62;;;3.40;84.60
76726;BME280;65651;53.154;17.916;2023-10-13T04:33:29;100985.91;;;3.36;84.72
76726;BME280;65651;53.154;17.916;2023-10-13T04:36:16;100986.88;;;3.35;84.75
76726;BME280;65651;53.154;17.916;2023-10-13T04:38:51;100981.98;;;3.33;84.81
76726;BME280;65651;53.154;17.916;2023-10-13T04:41:38;100989.41;;;3.34;84.82
76726;BME280;65651;53.154;17.916;2023-10-13T04:44:11;100993.89;;;3.36;84.98
76726;BME280;65651;53.154;17.916;2023-10-13T04:46:59;100991.95;;;3.39;85.03
76726;BME280;65651;53.154;17.916;2023-10-13T04:49:28;100989.13;;;3.39;84.80
76726;BME280;65651;53.154;17.916;2023-10-13T04:52:05;100986.29;;;3.38;85.06
76726;BME280;65651;53.154;17.916;2023-10-13T04:54:43;100977.48;;;3.37;84.91
76726;BME280;65651;53.154;17.916;2023-10-13T04:57:33;100982.06;;;3.38;85.07
76726;BME280;65651;53.154;17.916;2023-10-13T05:00:32;100985.04;;;3.39;84.96
76726;BME280;65651;53.154;17.916;2023-10-13T05:03:20;100979.85;;;3.39;85.20
76726;BME280;65651;53.154;17.916;2023-10-13T05:06:07;100980.86;;;3.43;85.09
76726;BME280;65651;53.154;17.916;2023-10-13T05:08:52;100980.23;;;3.45;84.98
76726;BME280;65651;53.154;17.916;2023-10-13T05:11:44;100976.34;;;3.47;85.02
76726;BME280;65651;53.154;17.916;2023-10-13T05:14:30;100982.40;;;3.50;85.17
76726;BME280;65651;53.154;17.916;2023-10-13T05:17:16;100986.42;;;3.51;85.07
76726;BME280;65651;53.154;17.916;2023-10-13T05:20:01;100986.77;;;3.54;85.08
76726;BME280;65651;53.154;17.916;2023-10-13T05:22:49;100990.42;;;3.59;85.08
76726;BME280;65651;53.154;17.916;2023-10-13T05:25:37;100993.98;;;3.64;85.06
76726;BME280;65651;53.154;17.916;2023-10-13T05:28:23;100998.02;;;3.71;85.27
76726;BME280;65651;53.154;17.916;2023-10-13T05:31:09;100998.04;;;3.79;85.06
76726;BME280;65651;53.154;17.916;2023-10-13T05:33:55;100998.00;;;3.89;85.11
76726;BME280;65651;53.154;17.916;2023-10-13T05:36:41;100995.48;;;4.01;85.04
76726;BME280;65651;53.154;17.916;2023-10-13T05:39:27;100993.21;;;4.17;85.11
76726;BME280;65651;53.154;17.916;2023-10-13T05:42:13;100986.67;;;4.31;85.32
76726;BME280;65651;53.154;17.916;2023-10-13T05:44:59;100987.70;;;4.43;85.14
76726;BME280;65651;53.154;17.916;2023-10-13T05:47:46;100982.90;;;4.48;85.06
76726;BME280;65651;53.154;17.916;2023-10-13T05:50:14;100981.29;;;4.54;84.96
76726;BME280;65651;53.154;17.916;2023-10-13T05:52:49;100971.64;;;4.60;84.76
76726;BME280;65651;53.154;17.916;2023-10-13T05:55:25;100971.94;;;4.66;84.89
76726;BME280;65651;53.154;17.916;2023-10-13T05:58:12;100973.08;;;4.76;84.88
76726;BME280;65651;53.154;17.916;2023-10-13T06:00:58;100979.52;;;4.92;84.74
76726;BME280;65651;53.154;17.916;2023-10-13T06:03:44;100975.13;;;5.07;84.81
76726;BME280;65651;53.154;17.916;2023-10-13T06:06:30;100977.09;;;5.21;84.64
76726;BME280;65651;53.154;17.916;2023-10-13T06:09:16;100977.27;;;5.28;84.55
76726;BME280;65651;53.154;17.916;2023-10-13T06:12:02;100980.02;;;5.35;84.38
76726;BME280;65651;53.154;17.916;2023-10-13T06:14:49;100985.80;;;5.42;84.28
76726;BME280;65651;53.154;17.916;2023-10-13T06:17:35;100990.52;;;5.45;84.47
76726;BME280;65651;53.154;17.916;2023-10-13T06:20:21;100995.04;;;5.47;84.30
76726;BME280;65651;53.154;17.916;2023-10-13T06:23:06;100993.79;;;5.50;84.05
76726;BME280;65651;53.154;17.916;2023-10-13T06:25:57;101003.46;;;5.57;84.19
76726;BME280;65651;53.154;17.916;2023-10-13T06:28:46;101002.59;;;5.62;84.23
76726;BME280;65651;53.154;17.916;2023-10-13T06:31:13;100997.23;;;5.67;84.11
76726;BME280;65651;53.154;17.916;2023-10-13T06:33:49;101000.88;;;5.74;84.12
76726;BME280;65651;53.154;17.916;2023-10-13T06:36:17;100994.66;;;5.84;84.08
76726;BME280;65651;53.154;17.916;2023-10-13T06:38:44;100995.75;;;5.94;84.25
76726;BME280;65651;53.154;17.916;2023-10-13T06:41:12;100997.17;;;6.05;84.06
76726;BME280;65651;53.154;17.916;2023-10-13T06:43:57;100993.95;;;6.15;84.29
76726;BME280;65651;53.154;17.916;2023-10-13T06:46:30;100992.40;;;6.24;83.90
76726;BME280;65651;53.154;17.916;2023-10-13T06:49:03;100992.13;;;6.35;84.14
76726;BME280;65651;53.154;17.916;2023-10-13T06:51:31;100992.27;;;6.48;83.99
76726;BME280;65651;53.154;17.916;2023-10-13T06:54:06;100983.04;;;6.72;83.52
76726;BME280;65651;53.154;17.916;2023-10-13T06:56:47;100982.98;;;6.95;83.55
76726;BME280;65651;53.154;17.916;2023-10-13T06:59:19;100983.59;;;7.08;83.89
76726;BME280;65651;53.154;17.916;2023-10-13T07:01:46;100979.79;;;7.14;83.69
76726;BME280;65651;53.154;17.916;2023-10-13T07:04:15;100978.34;;;7.21;83.74
76726;BME280;65651;53.154;17.916;2023-10-13T07:06:43;100981.23;;;7.20;83.63
76726;BME280;65651;53.154;17.916;2023-10-13T07:09:17;100975.14;;;7.18;83.43
76726;BME280;65651;53.154;17.916;2023-10-13T07:12:05;100976.54;;;7.19;83.35
76726;BME280;65651;53.154;17.916;2023-10-13T07:14:53;100975.77;;;7.24;83.48
76726;BME280;65651;53.154;17.916;2023-10-13T07:17:30;100977.75;;;7.29;83.40
76726;BME280;65651;53.154;17.916;2023-10-13T07:20:06;100970.63;;;7.34;83.39
76726;BME280;65651;53.154;17.916;2023-10-13T07:22:42;100969.31;;;7.43;83.29
76726;BME280;65651;53.154;17.916;2023-10-13T07:25:22;100965.73;;;7.56;83.31
76726;BME280;65651;53.154;17.916;2023-10-13T07:27:55;100959.52;;;7.69;83.24
76726;BME280;65651;53.154;17.916;2023-10-13T07:30:23;100957.98;;;7.81;83.45
76726;BME280;65651;53.154;17.916;2023-10-13T07:32:54;100958.61;;;7.94;83.50
76726;BME280;65651;53.154;17.916;2023-10-13T07:35:25;100965.53;;;8.06;83.38
76726;BME280;65651;53.154;17.916;2023-10-13T07:37:53;100953.95;;;8.14;83.51
76726;BME280;65651;53.154;17.916;2023-10-13T07:40:22;100951.64;;;8.23;83.46
76726;BME280;65651;53.154;17.916;2023-10-13T07:42:56;100952.20;;;8.34;83.33
76726;BME280;65651;53.154;17.916;2023-10-13T07:45:44;100948.36;;;8.42;83.22
76726;BME280;65651;53.154;17.916;2023-10-13T07:48:11;100942.60;;;8.47;83.26
76726;BME280;65651;53.154;17.916;2023-10-13T07:50:44;100943.95;;;8.55;83.13
76726;BME280;65651;53.154;17.916;2023-10-13T07:53:12;100937.02;;;8.63;83.17
76726;BME280;65651;53.154;17.916;2023-10-13T07:56:01;100929.16;;;8.69;83.19
76726;BME280;65651;53.154;17.916;2023-10-13T07:58:41;100919.41;;;8.79;83.10
76726;BME280;65651;53.154;17.916;2023-10-13T08:01:27;100911.50;;;8.87;83.04
76726;BME280;65651;53.154;17.916;2023-10-13T08:03:54;100909.64;;;8.95;82.99
76726;BME280;65651;53.154;17.916;2023-10-13T08:06:46;100903.23;;;9.05;82.95
76726;BME280;65651;53.154;17.916;2023-10-13T08:09:13;100894.78;;;9.14;82.86
76726;BME280;65651;53.154;17.916;2023-10-13T08:12:08;100885.83;;;9.22;82.92
76726;BME280;65651;53.154;17.916;2023-10-13T08:14:38;100883.33;;;9.28;82.84
76726;BME280;65651;53.154;17.916;2023-10-13T08:17:10;100883.61;;;9.38;82.95
76726;BME280;65651;53.154;17.916;2023-10-13T08:19:38;100877.96;;;9.49;82.93
76726;BME280;65651;53.154;17.916;2023-10-13T08:22:16;100874.95;;;9.61;82.96
76726;BME280;65651;53.154;17.916;2023-10-13T08:24:48;100878.19;;;9.69;82.98
76726;BME280;65651;53.154;17.916;2023-10-13T08:27:19;100881.69;;;9.79;83.00
76726;BME280;65651;53.154;17.916;2023-10-13T08:30:08;100881.11;;;9.89;82.81
76726;BME280;65651;53.154;17.916;2023-10-13T08:32:53;100878.70;;;10.00;83.12
76726;BME280;65651;53.154;17.916;2023-10-13T08:35:44;100874.89;;;10.13;82.78
76726;BME280;65651;53.154;17.916;2023-10-13T08:38:32;100872.19;;;10.27;82.77
76726;BME280;65651;53.154;17.916;2023-10-13T08:41:17;100863.98;;;10.42;82.99
76726;BME280;65651;53.154;17.916;2023-10-13T08:43:51;100858.23;;;10.61;82.74
76726;BME280;65651;53.154;17.916;2023-10-13T08:46:20;100860.62;;;10.75;82.65
76726;BME280;65651;53.154;17.916;2023-10-13T08:48:59;100857.33;;;10.91;82.62
76726;BME280;65651;53.154;17.916;2023-10-13T08:51:42;100863.09;;;11.07;82.44
76726;BME280;65651;53.154;17.916;2023-10-13T08:54:19;100863.56;;;11.21;82.45
76726;BME280;65651;53.154;17.916;2023-10-13T08:56:48;100861.29;;;11.37;82.40
76726;BME280;65651;53.154;17.916;2023-10-13T08:59:31;100865.96;;;11.52;82.48
76726;BME280;65651;53.154;17.916;2023-10-13T09:02:15;100866.96;;;11.61;82.11
76726;BME280;65651;53.154;17.916;2023-10-13T09:04:47;100870.55;;;11.65;82.39
76726;BME280;65651;53.154;17.916;2023-10-13T09:07:29;100863.54;;;11.68;82.14
76726;BME280;65651;53.154;17.916;2023-10-13T09:09:57;100859.64;;;11.77;82.32
76726;BME280;65651;53.154;17.916;2023-10-13T09:12:29;100860.34;;;11.87;82.14
76726;BME280;65651;53.154;17.916;2023-10-13T09:15:01;100863.08;;;11.90;82.06
76726;BME280;65651;53.154;17.916;2023-10-13T09:17:41;100865.78;;;11.96;82.08
76726;BME280;65651;53.154;17.916;2023-10-13T09:20:10;100864.06;;;12.00;81.94
76726;BME280;65651;53.154;17.916;2023-10-13T09:23:14;100859.73;;;12.12;81.91
76726;BME280;65651;53.154;17.916;2023-10-13T09:25:52;100853.20;;;12.23;81.95
76726;BME280;65651;53.154;17.916;2023-10-13T09:28:28;100842.85;;;12.35;81.80
76726;BME280;65651;53.154;17.916;2023-10-13T09:30:58;100836.45;;;12.45;81.91
76726;BME280;65651;53.154;17.916;2023-10-13T09:33:31;100827.71;;;12.57;81.71
76726;BME280;65651;53.154;17.916;2023-10-13T09:36:14;100820.79;;;12.70;81.82
76726;BME280;65651;53.154;17.916;2023-10-13T09:38:45;100819.11;;;12.82;81.68
76726;BME280;65651;53.154;17.916;2023-10-13T09:41:30;100812.66;;;12.93;81.68
76726;BME280;65651;53.154;17.916;2023-10-13T09:43:59;100813.33;;;13.01;81.57
76726;BME280;65651;53.154;17.916;2023-10-13T09:46:27;100803.64;;;13.04;81.44
76726;BME280;65651;53.154;17.916;2023-10-13T09:49:11;100801.84;;;13.09;81.49
76726;BME280;65651;53.154;17.916;2023-10-13T09:51:55;100796.57;;;13.10;81.35
76726;BME280;65651;53.154;17.916;2023-10-13T09:54:41;100792.68;;;13.11;81.45
76726;BME280;65651;53.154;17.916;2023-10-13T09:57:17;100788.20;;;13.17;81.36
76726;BME280;65651;53.154;17.916;2023-10-13T09:59:50;100780.48;;;13.26;81.30
76726;BME280;65651;53.154;17.916;2023-10-13T10:02:19;100775.98;;;13.36;81.23
76726;BME280;65651;53.154;17.916;2023-10-13T10:04:55;100768.73;;;13.41;81.14
76726;BME280;65651;53.154;17.916;2023-10-13T10:07:59;100765.36;;;13.48;81.10
76726;BME280;65651;53.154;17.916;2023-10-13T10:10:51;100762.35;;;13.55;81.07
76726;BME280;65651;53.154;17.916;2023-10-13T10:13:35;100759.48;;;13.60;80.96
76726;BME280;65651;53.154;17.916;2023-10-13T10:16:10;100753.27;;;13.71;81.05
76726;BME280;65651;53.154;17.916;2023-10-13T10:18:46;100744.31;;;13.83;80.85
76726;BME280;65651;53.154;17.916;2023-10-13T10:21:14;100739.11;;;13.95;80.79
76726;BME280;65651;53.154;17.916;2023-10-13T10:23:52;100736.40;;;14.10;80.66
76726;BME280;65651;53.154;17.916;2023-10-13T10:26:21;100732.07;;;14.23;80.57
76726;BME280;65651;53.154;17.916;2023-10-13T10:28:51;100728.55;;;14.34;80.48
76726;BME280;65651;53.154;17.916;2023-10-13T10:31:31;100719.63;;;14.41;80.44
76726;BME280;65651;53.154;17.916;2023-10-13T10:34:16;100716.23;;;14.47;80.27
76726;BME280;65651;53.154;17.916;2023-10-13T10:36:57;100716.39;;;14.54;80.20
76726;BME280;65651;53.154;17.916;2023-10-13T10:39:35;100708.47;;;14.59;79.96
76726;BME280;65651;53.154;17.916;2023-10-13T10:42:17;100696.79;;;14.71;79.86
76726;BME280;65651;53.154;17.916;2023-10-13T10:44:50;100695.45;;;14.87;79.67
76726;BME280;65651;53.154;17.916;2023-10-13T10:47:25;100695.02;;;14.98;79.64
76726;BME280;65651;53.154;17.916;2023-10-13T10:50:25;100689.83;;;15.20;79.50
76726;BME280;65651;53.154;17.916;2023-10-13T10:53:05;100679.70;;;15.34;79.41
76726;BME280;65651;53.154;17.916;2023-10-13T10:55:37;100661.55;;;15.57;79.14
76726;BME280;65651;53.154;17.916;2023-10-13T10:58:05;100669.70;;;15.76;78.87
76726;BME280;65651;53.154;17.916;2023-10-13T11:00:39;100663.37;;;15.92;78.73
76726;BME280;65651;53.154;17.916;2023-10-13T11:03:13;100655.80;;;16.05;78.22
76726;BME280;65651;53.154;17.916;2023-10-13T11:05:46;100652.54;;;16.20;78.03
76726;BME280;65651;53.154;17.916;2023-10-13T11:08:24;100654.67;;;16.49;77.74
76726;BME280;65651;53.154;17.916;2023-10-13T11:11:04;100654.24;;;16.86;77.11
76726;BME280;65651;53.154;17.916;2023-10-13T11:13:42;100637.69;;;17.13;76.73
76726;BME280;65651;53.154;17.916;2023-10-13T11:16:21;100627.42;;;17.36;76.73
76726;BME280;65651;53.154;17.916;2023-10-13T11:19:03;100631.23;;;17.73;75.91
76726;BME280;65651;53.154;17.916;2023-10-13T11:21:34;100626.02;;;17.86;75.55
76726;BME280;65651;53.154;17.916;2023-10-13T11:24:04;100619.81;;;17.74;75.29
76726;BME280;65651;53.154;17.916;2023-10-13T11:26:41;100614.04;;;17.74;75.14
76726;BME280;65651;53.154;17.916;2023-10-13T11:29:19;100613.23;;;17.79;75.09
76726;BME280;65651;53.154;17.916;2023-10-13T11:31:47;100611.64;;;17.74;74.90
76726;BME280;65651;53.154;17.916;2023-10-13T11:34:25;100609.39;;;17.63;74.73
76726;BME280;65651;53.154;17.916;2023-10-13T11:37:01;100603.61;;;17.53;74.32
76726;BME280;65651;53.154;17.916;2023-10-13T11:39:49;100594.13;;;17.55;74.49
76726;BME280;65651;53.154;17.916;2023-10-13T11:42:19;100593.45;;;17.51;74.31
76726;BME280;65651;53.154;17.916;2023-10-13T11:44:46;100591.92;;;17.49;74.59
76726;BME280;65651;53.154;17.916;2023-10-13T11:47:28;100594.67;;;17.55;74.30
76726;BME280;65651;53.154;17.916;2023-10-13T11:50:14;100591.20;;;17.52;74.19
76726;BME280;65651;53.154;17.916;2023-10-13T11:52:54;100582.34;;;17.50;74.41
76726;BME280;65651;53.154;17.916;2023-10-13T11:55:22;100583.30;;;17.60;74.34
76726;BME280;65651;53.154;17.916;2023-10-13T11:57:54;100574.78;;;17.68;74.35
76726;BME280;65651;53.154;17.916;2023-10-13T12:00:25;100577.02;;;17.77;73.99
76726;BME280;65651;53.154;17.916;2023-10-13T12:03:18;100568.06;;;17.78;73.79
76726;BME280;65651;53.154;17.916;2023-10-13T12:06:04;100561.14;;;17.84;73.89
76726;BME280;65651;53.154;17.916;2023-10-13T12:08:54;100562.52;;;17.98;73.97
76726;BME280;65651;53.154;17.916;2023-10-13T12:11:21;100562.69;;;17.98;73.87
76726;BME280;65651;53.154;17.916;2023-10-13T12:13:57;100549.97;;;17.91;74.04
76726;BME280;65651;53.154;17.916;2023-10-13T12:16:27;100548.05;;;17.87;74.09
76726;BME280;65651;53.154;17.916;2023-10-13T12:19:01;100546.33;;;17.84;74.26
76726;BME280;65651;53.154;17.916;2023-10-13T12:21:28;100549.58;;;17.80;74.30
76726;BME280;65651;53.154;17.916;2023-10-13T12:23:56;100542.96;;;17.81;74.43
76726;BME280;65651;53.154;17.916;2023-10-13T12:26:23;100538.29;;;17.74;74.40
76726;BME280;65651;53.154;17.916;2023-10-13T12:28:59;100529.45;;;17.72;74.48
76726;BME280;65651;53.154;17.916;2023-10-13T12:31:33;100530.64;;;17.70;74.60
76726;BME280;65651;53.154;17.916;2023-10-13T12:34:06;100523.30;;;17.62;74.72
76726;BME280;65651;53.154;17.916;2023-10-13T12:36:33;100525.81;;;17.58;74.78
76726;BME280;65651;53.154;17.916;2023-10-13T12:39:20;100522.17;;;17.51;74.94
76726;BME280;65651;53.154;17.916;2023-10-13T12:42:17;100520.80;;;17.39;75.05
76726;BME280;65651;53.154;17.916;2023-10-13T12:45:03;100515.40;;;17.28;75.16
76726;BME280;65651;53.154;17.916;2023-10-13T12:47:49;100514.16;;;17.23;75.29
76726;BME280;65651;53.154;17.916;2023-10-13T12:50:36;100502.02;;;17.24;75.47
76726;BME280;65651;53.154;17.916;2023-10-13T12:53:11;100491.77;;;17.24;75.51
76726;BME280;65651;53.154;17.916;2023-10-13T12:55:41;100484.54;;;17.28;75.61
76726;BME280;65651;53.154;17.916;2023-10-13T12:58:08;100482.79;;;17.29;75.72
76726;BME280;65651;53.154;17.916;2023-10-13T13:00:35;100478.77;;;17.28;75.76
76726;BME280;65651;53.154;17.916;2023-10-13T13:03:03;100474.31;;;17.26;75.82
76726;BME280;65651;53.154;17.916;2023-10-13T13:05:38;100468.16;;;17.23;75.98
76726;BME280;65651;53.154;17.916;2023-10-13T13:08:11;100458.34;;;17.20;76.12
76726;BME280;65651;53.154;17.916;2023-10-13T13:10:39;100453.52;;;17.20;76.10
76726;BME280;65651;53.154;17.916;2023-10-13T13:13:08;100445.83;;;17.25;76.19
76726;BME280;65651;53.154;17.916;2023-10-13T13:15:36;100443.30;;;17.27;76.12
76726;BME280;65651;53.154;17.916;2023-10-13T13:18:03;100436.41;;;17.34;76.28
76726;BME280;65651;53.154;17.916;2023-10-13T13:20:38;100433.58;;;17.39;76.22
76726;BME280;65651;53.154;17.916;2023-10-13T13:23:23;100423.66;;;17.41;76.32
76726;BME280;65651;53.154;17.916;2023-10-13T13:25:53;100420.96;;;17.43;76.24
76726;BME280;65651;53.154;17.916;2023-10-13T13:28:23;100411.27;;;17.42;76.35
76726;BME280;65651;53.154;17.916;2023-10-13T13:30:51;100405.41;;;17.46;76.26
76726;BME280;65651;53.154;17.916;2023-10-13T13:33:21;100398.70;;;17.54;76.28
76726;BME280;65651;53.154;17.916;2023-10-13T13:35:53;100407.38;;;17.65;76.31
76726;BME280;65651;53.154;17.916;2023-10-13T13:38:21;100402.14;;;17.72;76.36
76726;BME280;65651;53.154;17.916;2023-10-13T13:40:58;100399.13;;;17.78;76.22
76726;BME280;65651;53.154;17.916;2023-10-13T13:43:25;100390.75;;;17.79;76.19